Time;durP1;ratioP1;P1;durP2;ratioP2;P2;SDS_P1;SDS_P2;PMS_P1;PMS_P2;Temp;Humidity;BMP_temperature;BMP_pressure;BME280_temperature;BME280_humidity;BME280_pressure;Samples;Min_cycle;Max_cycle;Signal;HPM_P1;HPM_P2
2021/10/29 00:00:40;;;;;;;8.38;5.47;;;8.60;89.80;;;;;;5013377;28;20032;-80
2021/10/29 00:03:07;;;;;;;8.30;5.03;;;8.60;89.90;;;;;;5013556;28;20069;-81
2021/10/29 00:05:35;;;;;;;8.65;5.15;;;8.60;90.00;;;;;;5013226;28;20026;-79
2021/10/29 00:08:01;;;;;;;6.60;4.00;;;8.60;90.20;;;;;;5013250;28;20443;-80
2021/10/29 00:10:27;;;;;;;7.03;3.90;;;8.60;89.70;;;;;;5013057;28;20026;-81
2021/10/29 00:12:54;;;;;;;5.85;3.33;;;8.60;89.50;;;;;;5013195;28;20034;-81
2021/10/29 00:15:20;;;;;;;4.38;2.95;;;8.70;89.80;;;;;;5013370;28;20498;-80
2021/10/29 00:17:47;;;;;;;5.40;3.40;;;8.70;89.90;;;;;;5013642;28;20467;-81
2021/10/29 00:20:13;;;;;;;4.45;2.60;;;8.70;90.00;;;;;;5013211;28;20018;-80
2021/10/29 00:22:40;;;;;;;4.32;2.45;;;8.70;90.20;;;;;;5013063;28;20029;-81
2021/10/29 00:25:06;;;;;;;4.93;3.25;;;8.60;90.20;;;;;;5011918;28;20053;-81
2021/10/29 00:27:32;;;;;;;5.65;2.88;;;8.70;90.20;;;;;;5008091;28;20402;-81
2021/10/29 00:29:58;;;;;;;7.72;3.25;;;8.60;90.20;;;;;;5013134;28;20033;-80
2021/10/29 00:32:24;;;;;;;3.88;2.20;;;8.60;90.20;;;;;;5013418;28;20033;-80
2021/10/29 00:34:50;;;;;;;4.53;2.47;;;8.60;90.20;;;;;;5013273;28;20100;-82
2021/10/29 00:37:17;;;;;;;4.38;2.60;;;8.60;90.20;;;;;;5012800;28;20022;-82
2021/10/29 00:39:43;;;;;;;4.35;3.28;;;8.60;90.30;;;;;;5013651;28;20045;-81
2021/10/29 00:42:09;;;;;;;6.78;3.45;;;8.60;90.40;;;;;;5025712;28;20040;-81
2021/10/29 00:44:35;;;;;;;5.45;2.92;;;8.70;90.50;;;;;;5022884;28;20022;-81
2021/10/29 00:47:01;;;;;;;6.32;3.35;;;8.60;90.50;;;;;;5013358;28;20447;-81
2021/10/29 00:49:27;;;;;;;6.88;3.38;;;8.70;90.50;;;;;;5013165;28;20029;-82
2021/10/29 00:51:53;;;;;;;9.77;4.55;;;8.60;90.50;;;;;;5013279;28;20423;-82
2021/10/29 00:54:20;;;;;;;8.93;4.97;;;8.70;90.60;;;;;;5001930;28;20185;-80
2021/10/29 00:56:48;;;;;;;12.52;6.45;;;8.70;90.50;;;;;;4994228;28;20022;-81
2021/10/29 00:59:14;;;;;;;;;;;8.70;90.40;;;;;;4994007;28;20027;-81
2021/10/29 01:01:40;;;;;;;8.83;4.73;;;8.70;90.40;;;;;;4993481;28;19905;-80
2021/10/29 01:04:06;;;;;;;10.25;5.72;;;8.60;90.40;;;;;;4993335;28;20264;-82
2021/10/29 01:06:33;;;;;;;12.52;7.05;;;8.60;90.50;;;;;;4993609;28;20101;-82
2021/10/29 01:08:59;;;;;;;11.00;6.53;;;8.60;90.40;;;;;;4993253;28;20028;-80
2021/10/29 01:11:27;;;;;;;13.60;7.00;;;8.60;90.50;;;;;;4993469;28;20038;-80
2021/10/29 01:13:53;;;;;;;10.93;7.03;;;8.60;90.50;;;;;;4993094;28;20113;-82
2021/10/29 01:16:21;;;;;;;12.30;7.85;;;8.60;90.50;;;;;;4993461;28;20050;-82
2021/10/29 01:18:47;;;;;;;12.85;7.97;;;8.60;90.60;;;;;;4993402;28;20030;-82
2021/10/29 01:21:14;;;;;;;14.27;8.25;;;8.60;90.50;;;;;;4994035;28;20030;-83
2021/10/29 01:23:41;;;;;;;11.45;7.15;;;8.60;90.40;;;;;;4993510;28;20026;-83
2021/10/29 01:26:16;;;;;;;15.38;7.20;;;8.60;90.40;;;;;;4993188;28;20030;-82
2021/10/29 01:28:43;;;;;;;11.52;7.03;;;8.70;90.40;;;;;;4993052;28;20073;-82
2021/10/29 01:31:09;;;;;;;13.90;7.43;;;8.70;90.40;;;;;;4993329;28;20026;-82
2021/10/29 01:33:35;;;;;;;11.80;6.90;;;8.60;90.30;;;;;;4994019;28;20045;-80
2021/10/29 01:36:01;;;;;;;12.05;6.55;;;8.60;90.20;;;;;;4993900;28;20027;-83
2021/10/29 01:38:36;;;;;;;9.20;5.78;;;8.60;90.10;;;;;;4993327;28;20033;-82
2021/10/29 01:41:02;;;;;;;10.30;6.70;;;8.70;90.00;;;;;;4996897;28;20380;-82
2021/10/29 01:43:28;;;;;;;11.10;7.30;;;8.60;90.00;;;;;;5012445;28;20026;-80
2021/10/29 01:45:55;;;;;;;11.27;6.53;;;8.60;90.00;;;;;;5012511;28;20036;-81
2021/10/29 01:48:24;;;;;;;11.32;7.22;;;8.70;89.90;;;;;;5014008;28;20022;-81
2021/10/29 01:50:51;;;;;;;11.95;6.60;;;8.70;89.90;;;;;;5016097;28;20085;-82
2021/10/29 01:53:17;;;;;;;14.13;6.43;;;8.70;89.70;;;;;;5016403;28;20038;-82
2021/10/29 01:55:43;;;;;;;12.85;7.25;;;8.70;89.50;;;;;;5016686;28;20046;-81
2021/10/29 01:58:08;;;;;;;6.20;3.78;;;8.70;89.40;;;;;;5016378;28;20364;-82
2021/10/29 02:00:34;;;;;;;10.88;5.07;;;8.70;87.70;;;;;;5016031;28;20026;-82
2021/10/29 02:03:00;;;;;;;8.70;5.78;;;8.60;87.00;;;;;;5015897;28;20105;-83
2021/10/29 02:05:26;;;;;;;7.20;4.43;;;8.60;87.10;;;;;;5015843;28;20029;-82
2021/10/29 02:07:52;;;;;;;10.57;6.05;;;8.60;87.00;;;;;;5014810;28;20030;-82
2021/10/29 02:10:18;;;;;;;11.85;6.10;;;8.50;87.30;;;;;;5015786;28;20431;-81
2021/10/29 02:12:44;;;;;;;14.18;6.82;;;8.50;87.80;;;;;;5015791;28;20038;-82
2021/10/29 02:15:10;;;;;;;13.35;7.97;;;8.50;88.10;;;;;;5015935;28;20048;-81
2021/10/29 02:17:36;;;;;;;14.57;6.97;;;8.40;88.40;;;;;;5015741;28;20406;-80
2021/10/29 02:20:03;;;;;;;8.63;6.75;;;8.30;88.70;;;;;;5015940;28;20045;-81
2021/10/29 02:22:29;;;;;;;15.95;10.13;;;8.30;89.10;;;;;;5017535;28;20022;-82
2021/10/29 02:24:56;;;;;;;10.35;7.47;;;8.30;89.40;;;;;;5016185;28;20050;-81
2021/10/29 02:27:22;;;;;;;10.80;7.15;;;8.30;89.50;;;;;;5015632;28;20033;-81
2021/10/29 02:29:47;;;;;;;10.63;5.95;;;8.30;89.60;;;;;;5014599;28;20022;-80
2021/10/29 02:32:14;;;;;;;13.40;6.60;;;8.20;89.40;;;;;;5016125;28;20049;-80
2021/10/29 02:34:39;;;;;;;12.85;6.57;;;8.10;89.30;;;;;;4997886;28;20434;-80
2021/10/29 02:37:05;;;;;;;9.73;5.72;;;8.10;89.50;;;;;;5015409;28;20036;-80
2021/10/29 02:39:31;;;;;;;14.82;7.00;;;8.00;89.70;;;;;;5015256;28;20026;-80
2021/10/29 02:42:01;;;;;;;10.52;6.68;;;7.90;90.10;;;;;;5015124;28;20467;-81
2021/10/29 02:44:27;;;;;;;10.18;6.30;;;7.90;90.20;;;;;;5015238;28;20471;-82
2021/10/29 02:46:53;;;;;;;13.10;7.43;;;7.90;90.30;;;;;;5015160;28;20053;-80
2021/10/29 02:49:19;;;;;;;12.57;6.72;;;7.90;90.30;;;;;;5015257;28;20060;-83
2021/10/29 02:51:46;;;;;;;11.25;7.03;;;7.90;90.30;;;;;;5015305;28;20022;-82
2021/10/29 02:54:11;;;;;;;12.48;6.88;;;7.90;90.30;;;;;;5015812;28;20399;-82
2021/10/29 02:56:37;;;;;;;11.27;7.03;;;8.00;90.20;;;;;;5014341;28;20029;-81
2021/10/29 02:59:03;;;;;;;14.23;8.20;;;7.90;90.20;;;;;;5015069;28;20048;-84
2021/10/29 03:01:29;;;;;;;13.93;7.47;;;8.00;90.20;;;;;;5014094;28;20027;-82
2021/10/29 03:03:55;;;;;;;16.05;11.45;;;7.90;90.20;;;;;;4997194;28;20030;-81
2021/10/29 03:06:21;;;;;;;13.90;8.88;;;7.90;90.20;;;;;;5014927;28;20097;-84
2021/10/29 03:08:47;;;;;;;13.70;8.65;;;7.90;90.20;;;;;;5014839;28;20029;-82
2021/10/29 03:11:13;;;;;;;14.07;8.20;;;7.80;90.30;;;;;;5014823;28;20467;-80
2021/10/29 03:13:39;;;;;;;13.15;7.90;;;7.80;90.40;;;;;;5014474;28;20038;-80
2021/10/29 03:16:05;;;;;;;14.38;9.10;;;7.70;90.40;;;;;;5014688;28;20022;-81
2021/10/29 03:18:31;;;;;;;15.18;9.45;;;7.70;90.70;;;;;;4996910;28;20124;-80
2021/10/29 03:20:58;;;;;;;14.98;8.95;;;7.70;90.40;;;;;;5014811;28;20057;-81
2021/10/29 03:23:24;;;;;;;14.98;9.20;;;7.80;90.30;;;;;;5014648;28;20030;-81
2021/10/29 03:25:50;;;;;;;13.15;9.45;;;7.80;90.10;;;;;;5014404;28;20033;-81
2021/10/29 03:28:16;;;;;;;16.95;9.18;;;7.80;90.10;;;;;;5014632;28;20026;-82
2021/10/29 03:30:42;;;;;;;14.85;9.27;;;7.90;89.90;;;;;;5014248;28;20480;-80
2021/10/29 03:33:08;;;;;;;15.43;10.38;;;7.90;89.50;;;;;;5014352;28;20033;-80
2021/10/29 03:35:34;;;;;;;16.25;10.10;;;7.90;89.00;;;;;;5014213;28;20033;-80
2021/10/29 03:40:51;;;;;;;14.70;9.50;;;8.00;88.60;;;;;;5014304;28;20022;-80
2021/10/29 03:43:25;;;;;;;17.25;9.80;;;8.00;88.40;;;;;;5014367;28;20474;-81
2021/10/29 03:45:57;;;;;;;19.77;11.88;;;8.00;88.20;;;;;;5014097;28;20029;-82
2021/10/29 03:51:10;;;;;;;19.02;10.90;;;8.00;88.10;;;;;;5014248;28;20117;-81
2021/10/29 03:53:50;;;;;;;19.35;11.30;;;8.00;87.90;;;;;;5013215;28;20526;-80
2021/10/29 03:56:20;;;;;;;20.60;12.13;;;8.00;87.90;;;;;;5013845;28;20045;-80
2021/10/29 03:58:49;;;;;;;17.52;11.48;;;8.00;88.00;;;;;;4996310;28;20033;-81
2021/10/29 04:01:15;;;;;;;14.63;10.57;;;8.00;87.90;;;;;;5014276;28;20041;-81
2021/10/29 04:03:42;;;;;;;19.75;12.50;;;8.00;87.80;;;;;;5014025;28;20459;-81
2021/10/29 04:06:08;;;;;;;20.63;12.02;;;8.00;87.60;;;;;;4996573;28;20015;-81
2021/10/29 04:08:34;;;;;;;16.38;11.20;;;8.00;87.40;;;;;;4994070;28;20041;-80
2021/10/29 04:11:00;;;;;;;17.55;11.52;;;8.00;87.20;;;;;;4993278;28;20022;-83
2021/10/29 04:13:28;;;;;;;17.00;11.10;;;8.00;87.10;;;;;;4994055;28;20494;-83
2021/10/29 04:15:54;;;;;;;22.15;12.20;;;8.00;87.00;;;;;;4996551;28;20018;-80
2021/10/29 04:18:21;;;;;;;16.88;11.25;;;7.90;87.00;;;;;;4992509;28;20034;-81
2021/10/29 04:20:47;;;;;;;19.73;12.30;;;7.90;87.10;;;;;;5004752;28;20018;-83
2021/10/29 04:23:13;;;;;;;19.13;11.32;;;7.90;87.10;;;;;;4994450;28;20502;-81
2021/10/29 04:25:39;;;;;;;17.92;11.25;;;7.90;87.20;;;;;;4993870;28;20022;-82
2021/10/29 04:28:08;;;;;;;21.35;12.63;;;7.90;87.20;;;;;;4994012;28;20022;-82
2021/10/29 04:30:34;;;;;;;18.27;12.35;;;7.80;87.30;;;;;;4994054;28;20014;-81
2021/10/29 04:33:06;;;;;;;19.73;12.07;;;7.80;87.30;;;;;;4993760;28;20049;-82
2021/10/29 04:35:35;;;;;;;12.98;10.70;;;7.80;87.40;;;;;;4994177;28;20042;-81
2021/10/29 04:38:03;;;;;;;20.38;12.60;;;7.80;87.60;;;;;;4994268;28;20019;-80
2021/10/29 04:40:29;;;;;;;17.08;11.75;;;7.70;87.50;;;;;;5010403;28;20030;-80
2021/10/29 04:42:55;;;;;;;17.20;11.23;;;7.70;87.70;;;;;;5013326;28;20360;-83
2021/10/29 04:45:21;;;;;;;16.35;11.23;;;7.70;87.60;;;;;;5013447;28;20029;-82
2021/10/29 04:47:47;;;;;;;19.30;12.38;;;7.80;87.50;;;;;;5014891;28;20026;-82
2021/10/29 04:50:14;;;;;;;18.88;12.07;;;7.80;87.40;;;;;;5013748;28;20104;-83
2021/10/29 04:52:40;;;;;;;17.55;12.05;;;7.90;87.30;;;;;;4996465;28;20022;-84
2021/10/29 04:55:06;;;;;;;17.88;11.57;;;7.90;87.10;;;;;;5013046;28;20132;-80
2021/10/29 04:57:32;;;;;;;19.60;11.70;;;8.00;87.00;;;;;;5013079;28;20433;-82
2021/10/29 05:00:00;;;;;;;16.02;11.30;;;8.00;86.50;;;;;;5012956;28;20113;-82
2021/10/29 05:02:26;;;;;;;18.55;11.40;;;8.00;86.20;;;;;;5010392;28;20109;-82
2021/10/29 05:04:52;;;;;;;16.13;12.10;;;8.00;86.20;;;;;;4985141;28;20038;-85
2021/10/29 05:07:17;;;;;;;15.02;11.52;;;8.00;86.30;;;;;;4994495;28;20026;-85
2021/10/29 05:09:43;;;;;;;17.52;10.63;;;8.00;86.20;;;;;;4993964;28;20031;-83
2021/10/29 05:12:09;;;;;;;16.05;11.52;;;8.00;86.10;;;;;;4993432;28;20046;-83
2021/10/29 05:14:35;;;;;;;14.35;10.57;;;8.10;86.10;;;;;;4993336;28;20042;-82
2021/10/29 05:17:01;;;;;;;16.45;11.70;;;8.10;85.90;;;;;;4993098;28;20034;-82
2021/10/29 05:19:27;;;;;;;14.70;10.68;;;8.10;85.80;;;;;;4993188;28;20040;-83
2021/10/29 05:21:52;;;;;;;17.33;11.27;;;8.10;85.70;;;;;;4993645;28;20027;-82
2021/10/29 05:24:18;;;;;;;17.00;11.50;;;8.20;85.60;;;;;;4997270;28;20034;-82
2021/10/29 05:26:45;;;;;;;16.17;11.02;;;8.20;85.60;;;;;;4997330;28;20027;-83
2021/10/29 05:29:11;;;;;;;18.73;9.30;;;8.20;85.40;;;;;;4997401;28;20034;-82
2021/10/29 05:31:37;;;;;;;17.65;11.70;;;8.20;85.20;;;;;;4996794;28;20026;-83
2021/10/29 05:34:03;;;;;;;21.63;13.02;;;8.20;85.40;;;;;;4997501;28;20030;-83
2021/10/29 05:36:29;;;;;;;18.38;11.98;;;8.30;85.50;;;;;;4996670;28;20403;-82
2021/10/29 05:38:55;;;;;;;15.73;12.32;;;8.30;85.40;;;;;;5010847;28;20025;-81
2021/10/29 05:41:21;;;;;;;17.98;12.13;;;8.40;85.20;;;;;;5018146;28;20018;-85
2021/10/29 05:43:46;;;;;;;16.33;12.82;;;8.50;85.20;;;;;;5016282;28;20033;-84
2021/10/29 05:46:12;;;;;;;17.33;11.70;;;8.50;85.00;;;;;;5016645;28;20014;-82
2021/10/29 05:48:39;;;;;;;18.45;12.00;;;8.40;85.10;;;;;;4999276;28;20032;-82
2021/10/29 05:51:11;;;;;;;14.52;11.30;;;8.40;85.20;;;;;;5016707;28;20064;-83
2021/10/29 05:56:06;;;;;;;16.17;9.75;;;8.40;85.20;;;;;;5015916;28;20093;-84
2021/10/29 05:58:34;;;;;;;15.63;10.77;;;8.40;85.40;;;;;;5016041;28;20053;-81
2021/10/29 06:01:01;;;;;;;13.70;10.75;;;8.30;85.70;;;;;;5015818;28;20431;-82
2021/10/29 06:03:27;;;;;;;15.40;11.27;;;8.30;85.80;;;;;;5015930;28;20493;-82
2021/10/29 06:05:55;;;;;;;13.82;9.43;;;8.40;85.80;;;;;;5016344;28;20030;-83
2021/10/29 06:08:21;;;;;;;14.13;10.65;;;8.40;85.60;;;;;;5016213;28;20025;-81
2021/10/29 06:10:47;;;;;;;15.05;9.32;;;8.40;85.80;;;;;;5016549;28;20026;-81
2021/10/29 06:13:13;;;;;;;15.32;10.18;;;8.40;85.70;;;;;;5015666;28;20084;-82
2021/10/29 06:15:43;;;;;;;16.92;10.65;;;8.30;85.90;;;;;;5015702;28;20026;-82
2021/10/29 06:18:09;;;;;;;14.85;7.15;;;8.40;86.00;;;;;;5016292;28;20018;-82
2021/10/29 06:20:35;;;;;;;12.95;9.05;;;8.40;85.60;;;;;;5015582;28;20025;-82
2021/10/29 06:23:06;;;;;;;11.65;8.45;;;8.30;85.90;;;;;;5015563;28;20030;-83
2021/10/29 06:25:41;;;;;;;12.77;9.18;;;8.40;85.90;;;;;;5015434;28;20049;-82
2021/10/29 06:28:12;;;;;;;13.63;8.52;;;8.50;86.00;;;;;;5015305;28;20076;-81
2021/10/29 06:30:40;;;;;;;12.30;7.90;;;8.50;85.80;;;;;;5015146;28;20058;-82
2021/10/29 06:33:08;;;;;;;13.45;9.73;;;8.60;85.80;;;;;;5015310;28;20036;-83
2021/10/29 06:35:34;;;;;;;12.63;8.15;;;8.70;85.60;;;;;;5014567;28;20381;-83
2021/10/29 06:38:00;;;;;;;13.65;8.23;;;8.80;85.00;;;;;;5011459;28;20037;-81
2021/10/29 06:40:28;;;;;;;12.23;8.77;;;8.80;84.60;;;;;;5014614;28;20026;-83
2021/10/29 06:42:57;;;;;;;;;;;8.80;84.40;;;;;;5015669;28;20033;-81
2021/10/29 06:46:02;;;;;;;8.85;5.90;;;8.80;84.70;;;;;;5015667;28;20204;-82
2021/10/29 06:48:34;;;;;;;15.95;6.93;;;8.90;84.40;;;;;;5016262;28;20034;-82
2021/10/29 06:59:22;;;;;;;9.35;6.18;;;8.80;84.30;;;;;;5014731;28;20081;-81
2021/10/29 07:04:38;;;;;;;8.88;6.07;;;8.90;84.40;;;;;;5014484;28;20458;-81
2021/10/29 07:40:04;;;;;;;8.43;5.65;;;9.10;84.10;;;;;;5015121;28;20076;-88
2021/10/29 07:42:39;;;;;;;8.90;5.55;;;9.10;85.40;;;;;;5013165;28;20025;-83
2021/10/29 07:45:07;;;;;;;9.35;4.88;;;9.10;85.10;;;;;;5014377;28;20462;-85
2021/10/29 07:47:35;;;;;;;7.28;5.50;;;9.10;85.20;;;;;;5013424;28;20105;-87
2021/10/29 07:50:02;;;;;;;7.63;5.68;;;9.00;85.00;;;;;;4996305;28;20478;-85
2021/10/29 07:52:28;;;;;;;8.23;5.40;;;8.90;85.80;;;;;;5011985;28;20022;-86
2021/10/29 07:54:54;;;;;;;7.50;5.18;;;8.90;86.00;;;;;;5009536;28;20046;-84
2021/10/29 07:57:20;;;;;;;6.50;4.70;;;8.90;86.30;;;;;;5015156;28;20121;-85
2021/10/29 07:59:51;;;;;;;7.72;5.57;;;9.10;86.00;;;;;;5013663;28;20026;-84
2021/10/29 08:02:18;;;;;;;7.88;5.53;;;9.20;85.70;;;;;;5014262;28;20040;-86
2021/10/29 08:04:44;;;;;;;9.30;5.18;;;9.30;85.20;;;;;;5012207;28;20387;-89
2021/10/29 08:07:11;;;;;;;11.57;5.93;;;9.30;85.00;;;;;;5012818;28;20045;-89
2021/10/29 08:09:37;;;;;;;10.00;6.28;;;9.40;85.00;;;;;;5016897;28;20037;-89
2021/10/29 08:12:03;;;;;;;11.25;6.32;;;9.50;84.80;;;;;;5008750;28;20018;-88
2021/10/29 08:14:29;;;;;;;7.60;4.95;;;9.70;84.60;;;;;;5000020;28;20117;-87
2021/10/29 08:16:55;;;;;;;7.07;4.93;;;9.70;83.60;;;;;;5001781;28;20053;-87
2021/10/29 08:19:27;;;;;;;7.43;4.88;;;9.60;83.90;;;;;;4994565;28;20022;-82
2021/10/29 08:21:53;;;;;;;6.93;5.53;;;9.60;84.10;;;;;;4992662;28;20025;-81
2021/10/29 08:24:19;;;;;;;7.85;4.63;;;9.60;84.30;;;;;;4992863;28;20101;-83
2021/10/29 08:26:46;;;;;;;7.57;5.47;;;9.60;84.00;;;;;;4993898;28;20018;-86
2021/10/29 08:29:12;;;;;;;8.95;5.45;;;9.70;83.80;;;;;;4999673;28;20037;-85
2021/10/29 08:31:38;;;;;;;8.35;5.00;;;9.60;84.20;;;;;;4996141;28;20093;-86
2021/10/29 08:34:04;;;;;;;7.70;5.03;;;9.60;84.50;;;;;;4997176;28;20091;-82
2021/10/29 08:36:31;;;;;;;10.40;5.05;;;9.60;84.40;;;;;;4992445;28;20034;-83
2021/10/29 08:38:57;;;;;;;8.35;5.13;;;9.60;84.30;;;;;;4992208;28;20520;-81
2021/10/29 08:41:24;;;;;;;9.80;6.22;;;9.60;84.50;;;;;;4993945;28;20396;-81
2021/10/29 08:43:50;;;;;;;7.57;5.63;;;9.60;84.70;;;;;;4995213;28;20037;-81
2021/10/29 08:46:17;;;;;;;9.48;5.30;;;9.60;84.50;;;;;;5015822;28;20112;-81
2021/10/29 08:48:43;;;;;;;8.10;5.10;;;9.70;84.60;;;;;;4996016;28;20018;-84
2021/10/29 08:51:12;;;;;;;10.30;6.10;;;9.70;84.50;;;;;;5015456;28;20025;-81
2021/10/29 08:53:38;;;;;;;11.00;5.95;;;9.80;84.30;;;;;;5012066;28;20479;-83
2021/10/29 08:56:06;;;;;;;10.85;5.70;;;9.70;84.60;;;;;;4994626;28;20113;-85
2021/10/29 08:58:35;;;;;;;7.40;5.25;;;9.70;85.00;;;;;;5018439;28;20040;-84
2021/10/29 09:01:07;;;;;;;8.38;5.13;;;9.70;85.20;;;;;;5017692;28;20022;-87
2021/10/29 09:03:45;;;;;;;9.20;5.50;;;9.70;85.20;;;;;;5018178;28;20025;-83
2021/10/29 09:06:39;;;;;;;8.13;6.00;;;9.70;85.80;;;;;;5019236;28;20050;-87
2021/10/29 09:17:45;;;;;;;6.20;4.38;;;9.70;87.80;;;;;;5016631;28;20443;-84
2021/10/29 09:33:50;;;;;;;7.93;5.47;;;9.60;89.30;;;;;;5018898;28;20030;-83
2021/10/29 09:36:27;;;;;;;8.05;5.75;;;9.60;89.20;;;;;;5017657;28;20096;-82
2021/10/29 09:39:04;;;;;;;8.32;5.88;;;9.60;89.10;;;;;;5015696;28;20092;-79
2021/10/29 09:41:30;;;;;;;;;;;9.60;89.00;;;;;;5002081;28;20034;-81
2021/10/29 09:44:14;;;;;;;6.28;5.38;;;9.60;88.90;;;;;;4999090;28;19906;-82
2021/10/29 09:46:58;;;;;;;6.90;4.53;;;9.50;89.70;;;;;;4999141;28;20062;-84
2021/10/29 09:49:33;;;;;;;9.55;5.00;;;9.50;89.90;;;;;;4998852;28;20439;-81
2021/10/29 09:57:33;;;;;;;8.35;5.65;;;9.60;90.10;;;;;;5002016;28;20082;-80
2021/10/29 10:00:03;;;;;;;9.77;5.32;;;9.60;89.90;;;;;;5000683;28;20046;-81
2021/10/29 10:02:29;;;;;;;9.80;4.93;;;9.70;89.50;;;;;;5000910;28;20467;-80
2021/10/29 10:05:00;;;;;;;7.40;5.40;;;9.80;89.40;;;;;;4999442;28;20030;-81
2021/10/29 10:07:31;;;;;;;8.52;4.85;;;9.90;88.90;;;;;;4998889;28;20436;-85
2021/10/29 10:09:59;;;;;;;5.93;4.20;;;9.90;88.70;;;;;;4994404;28;20042;-83
2021/10/29 10:12:29;;;;;;;11.10;5.18;;;10.00;88.10;;;;;;4996789;28;20464;-85
2021/10/29 10:14:59;;;;;;;8.93;4.72;;;10.10;87.80;;;;;;5000417;28;20506;-82
2021/10/29 10:17:25;;;;;;;7.32;3.90;;;10.20;87.50;;;;;;4994397;28;20462;-81
2021/10/29 10:19:58;;;;;;;7.55;4.05;;;10.20;87.00;;;;;;4995309;28;20102;-82
2021/10/29 10:22:27;;;;;;;7.30;4.38;;;10.00;86.90;;;;;;4995358;28;20026;-81
2021/10/29 10:25:00;;;;;;;8.75;5.40;;;10.00;87.30;;;;;;4998238;28;20018;-83
2021/10/29 10:40:50;;;;;;;8.18;4.72;;;10.30;86.80;;;;;;4995904;28;20045;-83
2021/10/29 10:48:44;;;;;;;11.07;4.35;;;10.40;87.10;;;;;;5015738;28;20084;-82
2021/10/29 10:54:20;;;;;;;7.47;4.47;;;10.40;87.20;;;;;;5014248;28;20053;-84
2021/10/29 11:11:12;;;;;;;4.47;2.63;;;10.60;87.00;;;;;;4954765;29;20441;-81
2021/10/29 11:13:45;;;;;;;3.58;2.83;;;10.60;87.20;;;;;;4952180;29;20043;-81
2021/10/29 11:16:16;;;;;;;5.65;3.65;;;10.60;88.00;;;;;;4954177;29;20023;-82
2021/10/29 11:18:58;;;;;;;10.57;7.50;;;10.70;87.40;;;;;;4954136;29;20519;-81
2021/10/29 11:21:45;;;;;;;4.22;2.63;;;10.70;87.30;;;;;;4953801;28;20058;-82
2021/10/29 11:24:12;;;;;;;;;;;10.80;87.40;;;;;;4954654;29;20117;-82
2021/10/29 11:26:44;;;;;;;9.23;3.55;;;10.70;87.40;;;;;;4954115;29;19906;-82
2021/10/29 11:29:12;;;;;;;6.22;2.60;;;10.70;87.90;;;;;;4954024;29;20071;-83
2021/10/29 11:31:40;;;;;;;7.85;2.83;;;10.70;87.90;;;;;;4937768;29;20114;-83
2021/10/29 11:34:11;;;;;;;4.50;2.63;;;10.70;88.20;;;;;;4984200;28;20111;-82
2021/10/29 11:36:39;;;;;;;3.75;2.15;;;10.70;88.50;;;;;;4994687;28;20029;-83
2021/10/29 11:39:11;;;;;;;9.02;2.42;;;10.70;88.80;;;;;;5010682;28;20203;-82
2021/10/29 11:41:39;;;;;;;4.57;2.03;;;10.70;89.20;;;;;;5015067;28;20045;-84
2021/10/29 11:44:12;;;;;;;12.38;3.00;;;10.70;89.40;;;;;;5014082;28;20053;-86
2021/10/29 11:46:40;;;;;;;4.63;2.35;;;10.60;89.60;;;;;;5000453;28;20403;-83
2021/10/29 11:49:21;;;;;;;8.50;2.92;;;10.60;89.80;;;;;;4994520;28;20018;-82
2021/10/29 11:51:47;;;;;;;8.38;3.35;;;10.60;90.10;;;;;;4996771;28;20025;-83
2021/10/29 11:54:21;;;;;;;8.13;2.17;;;10.60;90.30;;;;;;5016637;28;20050;-83
2021/10/29 12:07:36;;;;;;;4.57;2.53;;;10.70;90.50;;;;;;5033164;28;20107;-83
2021/10/29 12:10:10;;;;;;;8.88;5.22;;;10.70;90.60;;;;;;5015588;28;20021;-80
2021/10/29 12:12:42;;;;;;;5.35;2.97;;;10.60;90.80;;;;;;5022956;28;20033;-79
2021/10/29 12:15:25;;;;;;;6.88;3.30;;;10.60;91.10;;;;;;5013458;28;20028;-81
2021/10/29 12:18:05;;;;;;;7.78;3.47;;;10.50;91.20;;;;;;5011539;28;20053;-81
2021/10/29 12:20:36;;;;;;;6.28;2.97;;;10.60;91.30;;;;;;5013243;28;20428;-81
2021/10/29 12:23:15;;;;;;;4.30;2.53;;;10.60;91.30;;;;;;4994912;28;20042;-80
2021/10/29 12:26:06;;;;;;;6.38;3.13;;;10.60;91.50;;;;;;5011802;28;20026;-81
2021/10/29 12:28:40;;;;;;;7.43;3.40;;;10.70;91.50;;;;;;5012334;28;20045;-80
2021/10/29 12:31:14;;;;;;;6.88;3.72;;;10.70;91.50;;;;;;5013218;28;20029;-79
2021/10/29 13:03:25;;;;;;;7.30;4.43;;;10.60;92.80;;;;;;5014151;28;20447;-80
2021/10/29 13:05:57;;;;;;;11.45;7.43;;;10.50;93.00;;;;;;5013032;28;20022;-79
2021/10/29 13:08:24;;;;;;;12.27;4.90;;;10.50;93.20;;;;;;5012745;28;20024;-82
2021/10/29 13:10:56;;;;;;;7.47;3.65;;;10.50;93.30;;;;;;5012452;28;20080;-81
2021/10/29 13:13:56;;;;;;;7.80;4.78;;;10.50;93.50;;;;;;5008919;28;20069;-81
2021/10/29 13:16:16;;;;;;;9.95;4.95;;;10.40;93.60;;;;;;5008612;28;20121;-80
2021/10/29 13:19:13;;;;;;;7.63;4.28;;;10.40;93.80;;;;;;5012675;28;20099;-81
2021/10/29 13:51:10;;;;;;;6.95;3.95;;;10.40;94.70;;;;;;5015897;28;20040;-80
2021/10/29 13:53:46;;;;;;;5.05;3.40;;;10.40;94.80;;;;;;5016625;28;20029;-82
2021/10/29 13:56:20;;;;;;;6.90;3.83;;;10.40;94.90;;;;;;5016958;28;20022;-81
2021/10/29 14:24:22;;;;;;;5.78;4.40;;;10.40;95.00;;;;;;5015042;28;20033;-81
2021/10/29 14:30:51;;;;;;;9.30;4.85;;;10.40;95.20;;;;;;5014985;28;20088;-81
2021/10/29 14:33:26;;;;;;;9.00;4.70;;;10.50;95.20;;;;;;5015194;28;20030;-82
2021/10/29 14:35:56;;;;;;;6.82;4.53;;;10.50;95.20;;;;;;5014797;28;20021;-82
2021/10/29 14:41:05;;;;;;;8.85;4.72;;;10.50;95.10;;;;;;5015656;28;20551;-79
2021/10/29 14:43:55;;;;;;;8.45;5.53;;;10.50;95.10;;;;;;5005640;28;20022;-83
2021/10/29 15:05:07;;;;;;;11.38;7.63;;;10.60;95.20;;;;;;4995346;28;20126;-83
2021/10/29 15:31:34;;;;;;;9.35;7.68;;;10.70;95.10;;;;;;5014180;28;20025;-82
2021/10/29 15:44:52;;;;;;;9.60;7.25;;;10.70;95.00;;;;;;4994679;28;20042;-85
2021/10/29 15:47:32;;;;;;;11.98;7.97;;;10.70;95.00;;;;;;5008650;28;20431;-85
2021/10/29 15:50:05;;;;;;;10.80;7.68;;;10.80;95.00;;;;;;5014218;28;20044;-83
2021/10/29 15:52:31;;;;;;;14.43;7.93;;;10.70;94.90;;;;;;5013882;28;20021;-85
2021/10/29 15:55:03;;;;;;;12.07;7.38;;;10.80;94.90;;;;;;4977794;28;20054;-88
2021/10/29 15:57:32;;;;;;;9.93;7.90;;;10.80;94.80;;;;;;4986138;28;20109;-83
2021/10/29 16:00:14;;;;;;;13.35;7.70;;;10.80;94.80;;;;;;4993387;28;20041;-84
2021/10/29 16:02:55;;;;;;;10.65;7.15;;;10.80;94.80;;;;;;4992999;28;20044;-82
2021/10/29 16:19:02;;;;;;;12.40;7.28;;;10.80;94.50;;;;;;4993442;28;20057;-83
2021/10/29 16:21:28;;;;;;;11.07;8.52;;;10.80;94.50;;;;;;4993724;28;20411;-83
2021/10/29 16:23:53;;;;;;;11.95;8.05;;;10.80;94.40;;;;;;4993420;28;20022;-84
2021/10/29 16:26:22;;;;;;;10.95;8.32;;;10.90;94.30;;;;;;4993657;28;20519;-83
2021/10/29 16:28:49;;;;;;;12.93;8.00;;;10.80;94.20;;;;;;4994819;28;20164;-84
2021/10/29 16:31:15;;;;;;;8.88;7.00;;;10.90;94.20;;;;;;4993926;28;20084;-82
2021/10/29 16:33:41;;;;;;;10.23;7.47;;;10.90;94.10;;;;;;4994994;28;20716;-82
2021/10/29 16:36:07;;;;;;;18.90;8.52;;;10.90;93.90;;;;;;4992193;28;20040;-81
2021/10/29 16:38:33;;;;;;;11.85;7.10;;;10.90;93.90;;;;;;4992907;28;20019;-83
2021/10/29 16:41:00;;;;;;;13.35;8.07;;;11.00;93.80;;;;;;4993907;28;20026;-84
2021/10/29 16:43:26;;;;;;;10.60;7.83;;;11.00;93.70;;;;;;4994052;28;20054;-87
2021/10/29 16:45:54;;;;;;;7.75;6.32;;;11.00;93.70;;;;;;4993827;28;20018;-87
2021/10/29 16:48:22;;;;;;;;;;;11.00;93.70;;;;;;4995401;28;20037;-87
2021/10/29 16:50:49;;;;;;;7.13;5.28;;;11.00;93.60;;;;;;4978985;28;19916;-87
2021/10/29 16:53:16;;;;;;;10.68;6.35;;;11.00;93.60;;;;;;4997877;28;20034;-87
2021/10/29 16:55:45;;;;;;;12.82;6.95;;;11.00;93.70;;;;;;4999567;28;20057;-89
2021/10/29 16:58:15;;;;;;;9.77;5.28;;;10.90;93.70;;;;;;5014579;28;20089;-90
2021/10/29 17:00:42;;;;;;;12.10;5.45;;;10.90;93.70;;;;;;4999382;28;20383;-88
2021/10/29 17:03:14;;;;;;;8.57;5.80;;;11.00;93.80;;;;;;5003783;28;20026;-89
2021/10/29 17:05:41;;;;;;;7.70;5.22;;;10.90;93.70;;;;;;4986604;28;20056;-85
2021/10/29 17:08:07;;;;;;;10.40;5.38;;;10.90;93.80;;;;;;5020250;28;20069;-89
2021/10/29 17:10:35;;;;;;;6.90;5.25;;;10.90;93.80;;;;;;5017784;28;20026;-94
2021/10/29 17:13:01;;;;;;;10.27;6.28;;;10.90;93.80;;;;;;5009711;28;20110;-88
2021/10/29 17:15:27;;;;;;;8.75;5.10;;;11.00;93.90;;;;;;5014265;28;20026;-89
2021/10/29 17:17:53;;;;;;;6.07;4.05;;;11.00;94.20;;;;;;5014959;28;20018;-87
2021/10/29 17:20:19;;;;;;;6.07;4.70;;;10.90;93.90;;;;;;5019825;28;20026;-90
2021/10/29 17:22:46;;;;;;;11.85;6.35;;;11.00;94.00;;;;;;5006787;28;20105;-89
2021/10/29 17:25:13;;;;;;;7.20;5.55;;;10.90;94.10;;;;;;5020724;28;20033;-90
2021/10/29 17:27:40;;;;;;;10.25;6.05;;;10.90;94.10;;;;;;5002859;28;20018;-91
2021/10/29 17:30:07;;;;;;;9.23;5.32;;;10.90;94.10;;;;;;5015711;28;20026;-91
2021/10/29 17:32:33;;;;;;;7.50;6.30;;;11.00;94.10;;;;;;4995725;28;20066;-90
2021/10/29 17:35:00;;;;;;;7.80;5.57;;;11.00;94.10;;;;;;5019167;28;20037;-88
2021/10/29 17:37:32;;;;;;;8.50;4.60;;;11.00;94.10;;;;;;5006293;28;20026;-89
2021/10/29 17:40:00;;;;;;;5.95;4.45;;;11.00;94.00;;;;;;5000915;28;20045;-89